createdAt,value
2023-02-01T00:01:22.886Z,97409.87
2023-02-01T00:03:51.366Z,97410.98
2023-02-01T00:06:19.676Z,97411.05
2023-02-01T00:08:47.673Z,97410.65
2023-02-01T00:11:15.685Z,97409.88
2023-02-01T00:13:43.638Z,97412.02
2023-02-01T00:16:17.654Z,97413.83
2023-02-01T00:18:47.571Z,97411.35
2023-02-01T00:21:18.603Z,97410.45
2023-02-01T00:23:47.290Z,97407.85
2023-02-01T00:26:18.590Z,97404.86
2023-02-01T00:28:47.568Z,97402.19
2023-02-01T00:31:16.205Z,97396.42
2023-02-01T00:33:47.668Z,97396.48
2023-02-01T00:36:17.831Z,97397.91
2023-02-01T00:38:46.003Z,97403.11
2023-02-01T00:41:17.013Z,97403.14
2023-02-01T00:43:46.111Z,97397.98
2023-02-01T00:46:15.958Z,97396.98
2023-02-01T00:48:44.430Z,97397.16
2023-02-01T00:51:16.407Z,97392.04
2023-02-01T00:53:44.713Z,97388.81
2023-02-01T00:56:13.265Z,97373.95
2023-02-01T00:58:45.308Z,97369.88
2023-02-01T01:01:22.898Z,97377.65
2023-02-01T01:03:56.386Z,97378.46
2023-02-01T01:06:30.517Z,97373.11
2023-02-01T01:09:00.421Z,97370.02
2023-02-01T01:11:31.529Z,97365.04
2023-02-01T01:14:00.689Z,97364.36
2023-02-01T01:16:30.866Z,97359.17
2023-02-01T01:18:59.422Z,97358.46
2023-02-01T01:21:27.872Z,97354.36
2023-02-01T01:23:56.144Z,97355.91
2023-02-01T01:26:28.724Z,97353.71
2023-02-01T01:28:58.369Z,97350.50
2023-02-01T01:31:27.270Z,97347.45
2023-02-01T01:33:58.272Z,97348.86
2023-02-01T01:36:27.868Z,97343.91
2023-02-01T01:38:56.464Z,97347.72
2023-02-01T01:41:29.484Z,97349.06
2023-02-01T01:44:01.998Z,97352.61
2023-02-01T01:46:34.146Z,97357.52
2023-02-01T01:49:05.114Z,97358.48
2023-02-01T01:51:40.314Z,97359.59
2023-02-01T01:54:34.254Z,97361.58
2023-02-01T01:57:10.867Z,97363.03
2023-02-01T01:59:43.098Z,97363.63
2023-02-01T02:02:11.559Z,97366.79
2023-02-01T02:04:40.395Z,97367.58
2023-02-01T02:07:18.776Z,97367.34
2023-02-01T02:09:59.527Z,97368.88
2023-02-01T02:12:29.620Z,97370.15
2023-02-01T02:14:57.970Z,97369.36
2023-02-01T02:18:02.383Z,97369.95
2023-02-01T02:21:04.581Z,97371.31
2023-02-01T02:24:08.080Z,97371.68
2023-02-01T02:26:41.750Z,97374.48
2023-02-01T02:29:43.605Z,97370.23
2023-02-01T02:32:59.518Z,97360.48
2023-02-01T02:36:07.947Z,97359.16
2023-02-01T02:38:52.592Z,97358.33
2023-02-01T02:42:17.188Z,97352.79
2023-02-01T02:45:21.352Z,97349.63
2023-02-01T02:48:14.170Z,97340.91
2023-02-01T02:51:11.361Z,97332.17
2023-02-01T02:54:29.356Z,97324.77
2023-02-01T02:57:19.533Z,97326.27
2023-02-01T03:00:08.095Z,97326.71
2023-02-01T03:02:55.307Z,97327.80
2023-02-01T03:05:23.829Z,97328.53
2023-02-01T03:07:58.305Z,97328.73
2023-02-01T03:10:40.164Z,97324.64
2023-02-01T03:13:34.449Z,97322.86
2023-02-01T03:16:06.371Z,97320.67
2023-02-01T03:18:47.759Z,97313.55
2023-02-01T03:21:22.779Z,97313.83
2023-02-01T03:23:54.556Z,97305.20
2023-02-01T03:26:25.461Z,97293.59
2023-02-01T03:28:58.573Z,97293.64
2023-02-01T03:31:30.043Z,97295.82
2023-02-01T03:33:59.510Z,97286.86
2023-02-01T03:36:35.698Z,97279.37
2023-02-01T03:39:10.924Z,97281.26
2023-02-01T03:42:01.595Z,97283.77
2023-02-01T03:44:39.634Z,97281.95
2023-02-01T03:47:30.357Z,97282.91
2023-02-01T03:50:11.829Z,97278.81
2023-02-01T03:52:46.461Z,97276.33
2023-02-01T03:55:18.788Z,97278.05
2023-02-01T03:57:56.293Z,97277.94
2023-02-01T04:00:26.618Z,97274.05
2023-02-01T04:02:56.630Z,97278.19
2023-02-01T04:05:25.250Z,97279.59
2023-02-01T04:08:06.336Z,97274.85
2023-02-01T04:10:34.620Z,97277.34
2023-02-01T04:13:02.653Z,97280.67
2023-02-01T04:15:30.637Z,97279.92
2023-02-01T04:17:58.717Z,97278.03
2023-02-01T04:20:26.713Z,97283.23
2023-02-01T04:22:55.176Z,97285.66
2023-02-01T04:25:23.499Z,97283.13
2023-02-01T04:27:51.550Z,97286.11
2023-02-01T04:30:19.484Z,97291.68
2023-02-01T04:32:47.905Z,97293.46
2023-02-01T04:35:16.122Z,97295.61
2023-02-01T04:37:44.164Z,97289.20
2023-02-01T04:40:12.824Z,97286.94
2023-02-01T04:42:40.822Z,97286.41
2023-02-01T04:45:10.099Z,97283.80
2023-02-01T04:47:38.054Z,97286.81
2023-02-01T04:50:07.072Z,97290.50
2023-02-01T04:52:35.864Z,97291.73
2023-02-01T04:55:05.217Z,97294.00
2023-02-01T04:57:33.245Z,97299.73
2023-02-01T05:00:01.411Z,97300.66
2023-02-01T05:02:29.305Z,97296.05
2023-02-01T05:04:57.472Z,97287.88
2023-02-01T05:07:25.505Z,97287.92
2023-02-01T05:09:53.521Z,97289.84
2023-02-01T05:12:40.064Z,97286.63
2023-02-01T05:15:08.626Z,97282.55
2023-02-01T05:17:36.612Z,97290.25
2023-02-01T05:20:05.089Z,97293.27
2023-02-01T05:22:33.141Z,97291.39
2023-02-01T05:25:01.193Z,97294.52
2023-02-01T05:27:31.793Z,97293.31
2023-02-01T05:29:59.839Z,97293.19
2023-02-01T05:32:28.017Z,97297.55
2023-02-01T05:34:56.426Z,97300.55
2023-02-01T05:37:24.587Z,97301.89
2023-02-01T05:39:52.528Z,97295.91
2023-02-01T05:42:20.919Z,97294.71
2023-02-01T05:44:49.256Z,97295.83
2023-02-01T05:47:17.438Z,97289.19
2023-02-01T05:49:45.527Z,97286.06
2023-02-01T05:52:13.634Z,97289.36
2023-02-01T05:54:41.873Z,97293.13
2023-02-01T05:57:10.105Z,97296.42
2023-02-01T05:59:42.365Z,97296.77
2023-02-01T06:02:11.422Z,97294.91
2023-02-01T06:04:40.382Z,97298.21
2023-02-01T06:07:10.238Z,97294.79
2023-02-01T06:09:38.324Z,97294.31
2023-02-01T06:12:06.937Z,97294.23
2023-02-01T06:14:35.196Z,97294.12
2023-02-01T06:17:04.090Z,97295.58
2023-02-01T06:19:32.434Z,97293.36
2023-02-01T06:22:00.523Z,97294.40
2023-02-01T06:24:28.667Z,97306.27
2023-02-01T06:26:57.092Z,97315.48
2023-02-01T06:29:25.493Z,97320.68
2023-02-01T06:31:54.823Z,97318.41
2023-02-01T06:34:24.235Z,97311.64
2023-02-01T06:36:52.666Z,97313.00
2023-02-01T06:39:21.461Z,97304.14
2023-02-01T06:41:50.862Z,97315.73
2023-02-01T06:44:19.203Z,97335.19
2023-02-01T06:46:47.448Z,97329.37
2023-02-01T06:49:15.841Z,97340.98
2023-02-01T06:51:44.250Z,97346.63
2023-02-01T06:54:12.680Z,97333.80
2023-02-01T06:56:41.311Z,97333.81
2023-02-01T06:59:09.855Z,97337.74
2023-02-01T07:01:38.059Z,97336.55
2023-02-01T07:04:06.313Z,97338.17
2023-02-01T07:06:34.542Z,97340.41
2023-02-01T07:09:02.683Z,97345.35
2023-02-01T07:11:31.908Z,97334.95
2023-02-01T07:14:00.772Z,97336.14
2023-02-01T07:16:30.518Z,97328.63
2023-02-01T07:18:59.676Z,97339.05
2023-02-01T07:21:28.984Z,97336.03
2023-02-01T07:23:57.290Z,97329.02
2023-02-01T07:26:25.474Z,97326.54
2023-02-01T07:28:53.676Z,97328.94
2023-02-01T07:31:22.152Z,97331.73
2023-02-01T07:33:53.564Z,97331.52
2023-02-01T07:36:22.085Z,97328.88
2023-02-01T07:38:51.959Z,97331.86
2023-02-01T07:41:20.443Z,97333.81
2023-02-01T07:43:48.501Z,97332.33
2023-02-01T07:46:16.688Z,97332.70
2023-02-01T07:48:44.914Z,97332.89
2023-02-01T07:51:15.546Z,97331.66
2023-02-01T07:53:44.879Z,97329.61
2023-02-01T07:56:16.262Z,97333.79
2023-02-01T07:58:48.544Z,97331.59
2023-02-01T08:01:21.345Z,97331.77
2023-02-01T08:03:55.704Z,97333.66
2023-02-01T08:06:27.572Z,97333.98
2023-02-01T08:08:56.587Z,97329.90
2023-02-01T08:11:27.306Z,97331.19
2023-02-01T08:14:05.240Z,97332.48
2023-02-01T08:16:36.608Z,97330.02
2023-02-01T08:19:04.985Z,97330.30
2023-02-01T08:21:39.363Z,97334.36
2023-02-01T08:24:15.017Z,97335.05
2023-02-01T08:26:43.432Z,97333.81
2023-02-01T08:29:13.689Z,97331.70
2023-02-01T08:31:43.024Z,97329.94
2023-02-01T08:34:13.820Z,97328.78
2023-02-01T08:36:42.298Z,97334.48
2023-02-01T08:39:12.425Z,97338.13
2023-02-01T08:41:41.395Z,97344.34
2023-02-01T08:44:11.315Z,97346.23
2023-02-01T08:46:40.925Z,97352.13
2023-02-01T08:49:18.206Z,97356.11
2023-02-01T08:51:46.721Z,97360.14
2023-02-01T08:54:15.400Z,97365.83
2023-02-01T08:56:43.835Z,97365.58
2023-02-01T08:59:12.290Z,97362.91
2023-02-01T09:01:40.892Z,97360.34
2023-02-01T09:04:09.397Z,97362.42
2023-02-01T09:06:38.496Z,97360.08
2023-02-01T09:09:06.965Z,97360.65
2023-02-01T09:11:35.403Z,97357.63
2023-02-01T09:14:03.849Z,97361.33
2023-02-01T09:16:32.834Z,97362.94
2023-02-01T09:19:24.290Z,97359.16
2023-02-01T09:21:49.492Z,97357.05
2023-02-01T09:24:18.541Z,97355.01
2023-02-01T09:26:46.711Z,97348.34
2023-02-01T09:29:15.212Z,97346.98
2023-02-01T09:31:49.837Z,97349.61
2023-02-01T09:34:26.147Z,97349.13
2023-02-01T09:36:54.699Z,97347.45
2023-02-01T09:39:23.151Z,97341.30
2023-02-01T09:41:55.310Z,97331.88
2023-02-01T09:44:42.369Z,97331.24
2023-02-01T09:47:16.648Z,97338.02
2023-02-01T09:50:12.136Z,97334.80
2023-02-01T09:52:57.286Z,97329.31
2023-02-01T09:55:36.130Z,97330.20
2023-02-01T09:58:15.414Z,97328.50
2023-02-01T10:00:54.598Z,97325.23
2023-02-01T10:03:26.132Z,97324.90
2023-02-01T10:06:06.977Z,97327.34
2023-02-01T10:08:59.025Z,97329.05
2023-02-01T10:11:52.040Z,97333.55
2023-02-01T10:14:57.078Z,97339.95
2023-02-01T10:17:44.152Z,97344.61
2023-02-01T10:21:04.303Z,97344.61
2023-02-01T10:24:05.989Z,97346.86
2023-02-01T10:26:45.745Z,97347.04
2023-02-01T10:29:20.905Z,97343.58
2023-02-01T10:31:50.583Z,97343.93
2023-02-01T10:34:28.574Z,97344.63
2023-02-01T10:37:33.298Z,97344.45
2023-02-01T10:40:14.791Z,97337.35
2023-02-01T10:42:43.516Z,97329.91
2023-02-01T10:45:31.983Z,97326.80
2023-02-01T10:48:15.077Z,97325.92
2023-02-01T10:51:01.531Z,97323.52
2023-02-01T10:53:44.082Z,97323.35
2023-02-01T10:56:17.748Z,97320.76
2023-02-01T10:58:49.743Z,97319.55
2023-02-01T11:01:52.282Z,97320.58
2023-02-01T11:04:22.373Z,97320.55
2023-02-01T11:07:10.155Z,97312.59
2023-02-01T11:09:43.156Z,97314.47
2023-02-01T11:12:34.895Z,97310.45
2023-02-01T11:15:24.502Z,97310.75
2023-02-01T11:17:55.955Z,97311.77
2023-02-01T11:20:33.593Z,97311.23
2023-02-01T11:23:03.025Z,97306.75
2023-02-01T11:25:36.568Z,97302.60
2023-02-01T11:28:06.183Z,97303.13
2023-02-01T11:30:42.156Z,97300.70
2023-02-01T11:33:19.076Z,97297.75
2023-02-01T11:35:49.270Z,97298.12
2023-02-01T11:38:34.071Z,97297.08
2023-02-01T11:41:28.782Z,97299.35
2023-02-01T11:44:03.091Z,97305.57
2023-02-01T11:46:34.568Z,97305.42
2023-02-01T11:49:28.412Z,97308.04
2023-02-01T11:52:16.129Z,97305.80
2023-02-01T11:55:11.348Z,97299.56
2023-02-01T11:57:54.845Z,97291.77
2023-02-01T12:00:35.952Z,97290.21
2023-02-01T12:03:31.936Z,97295.61
2023-02-01T12:06:07.278Z,97298.73
2023-02-01T12:09:02.573Z,97296.68
2023-02-01T12:12:20.464Z,97293.75
2023-02-01T12:15:04.779Z,97282.66
2023-02-01T12:17:39.277Z,97277.45
2023-02-01T12:20:20.651Z,97270.89
2023-02-01T12:23:28.089Z,97270.15
2023-02-01T12:26:33.828Z,97265.77
2023-02-01T12:29:26.876Z,97266.21
2023-02-01T12:32:44.955Z,97263.23
2023-02-01T12:35:32.931Z,97259.98
2023-02-01T12:38:23.054Z,97261.34
2023-02-01T12:41:09.573Z,97262.97
2023-02-01T12:43:48.309Z,97266.02
2023-02-01T12:46:26.560Z,97262.22
2023-02-01T12:49:08.488Z,97260.79
2023-02-01T12:51:43.015Z,97257.69
2023-02-01T12:54:28.435Z,97258.04
2023-02-01T12:57:10.501Z,97260.64
2023-02-01T12:59:50.645Z,97262.01
2023-02-01T13:02:43.899Z,97263.02
2023-02-01T13:05:21.996Z,97257.34
2023-02-01T13:08:01.053Z,97261.98
2023-02-01T13:10:42.663Z,97262.34
2023-02-01T13:13:20.473Z,97262.33
2023-02-01T13:15:57.373Z,97259.72
2023-02-01T13:18:34.854Z,97256.77
2023-02-01T13:21:09.562Z,97256.12
2023-02-01T13:23:41.712Z,97252.15
2023-02-01T13:26:10.587Z,97251.66
2023-02-01T13:28:55.303Z,97250.79
2023-02-01T13:31:49.006Z,97249.91
2023-02-01T13:34:33.252Z,97251.65
2023-02-01T13:37:29.141Z,97250.80
2023-02-01T13:40:25.436Z,97242.13
2023-02-01T13:42:54.460Z,97239.35
2023-02-01T13:45:29.726Z,97233.10
2023-02-01T13:48:02.775Z,97226.34
2023-02-01T13:50:37.382Z,97218.58
2023-02-01T13:53:18.875Z,97219.83
2023-02-01T13:56:00.672Z,97219.02
2023-02-01T13:58:42.156Z,97217.33
2023-02-01T14:01:32.234Z,97215.98
2023-02-01T14:04:07.265Z,97218.23
2023-02-01T14:06:45.948Z,97215.13
2023-02-01T14:09:38.217Z,97214.63
2023-02-01T14:12:54.802Z,97215.67
2023-02-01T14:15:29.084Z,97212.92
2023-02-01T14:17:57.774Z,97210.16
2023-02-01T14:20:47.020Z,97212.77
2023-02-01T14:23:19.137Z,97207.75
2023-02-01T14:25:50.270Z,97209.29
2023-02-01T14:28:30.853Z,97212.41
2023-02-01T14:31:00.988Z,97211.18
2023-02-01T14:33:29.896Z,97211.17
2023-02-01T14:36:15.299Z,97214.63
2023-02-01T14:38:51.341Z,97220.67
2023-02-01T14:41:30.260Z,97218.08
2023-02-01T14:44:03.147Z,97219.80
2023-02-01T14:47:06.340Z,97220.84
2023-02-01T14:49:41.228Z,97223.61
2023-02-01T14:52:17.446Z,97221.19
2023-02-01T14:54:53.502Z,97219.98
2023-02-01T14:57:26.881Z,97221.69
2023-02-01T15:00:07.068Z,97222.55
2023-02-01T15:02:40.382Z,97219.94
2023-02-01T15:05:32.351Z,97221.48
2023-02-01T15:08:31.684Z,97230.45
2023-02-01T15:11:03.918Z,97230.61
2023-02-01T15:13:32.382Z,97231.29
2023-02-01T15:16:07.107Z,97226.44
2023-02-01T15:18:35.636Z,97229.52
2023-02-01T15:21:26.496Z,97229.67
2023-02-01T15:24:16.135Z,97232.41
2023-02-01T15:26:44.910Z,97227.39
2023-02-01T15:29:14.959Z,97225.10
2023-02-01T15:31:47.072Z,97223.52
2023-02-01T15:34:15.551Z,97224.55
2023-02-01T15:37:00.350Z,97223.14
2023-02-01T15:39:33.171Z,97220.20
2023-02-01T15:42:21.097Z,97223.27
2023-02-01T15:44:49.487Z,97225.00
2023-02-01T15:47:21.421Z,97219.13
2023-02-01T15:49:56.027Z,97221.04
2023-02-01T15:52:37.108Z,97221.91
2023-02-01T15:55:47.922Z,97223.99
2023-02-01T15:58:22.854Z,97231.75
2023-02-01T16:00:57.012Z,97235.73
2023-02-01T16:03:37.704Z,97229.70
2023-02-01T16:06:10.234Z,97234.69
2023-02-01T16:08:50.059Z,97244.15
2023-02-01T16:11:24.639Z,97247.58
2023-02-01T16:13:53.039Z,97249.30
2023-02-01T16:16:21.476Z,97246.88
2023-02-01T16:18:50.051Z,97239.48
2023-02-01T16:21:19.101Z,97239.51
2023-02-01T16:23:52.651Z,97232.96
2023-02-01T16:26:22.623Z,97231.93
2023-02-01T16:28:51.617Z,97234.52
2023-02-01T16:31:24.736Z,97230.56
2023-02-01T16:33:53.683Z,97224.16
2023-02-01T16:36:22.785Z,97223.43
2023-02-01T16:38:51.071Z,97224.95
2023-02-01T16:41:21.407Z,97228.38
2023-02-01T16:43:56.292Z,97226.30
2023-02-01T16:46:27.243Z,97233.69
2023-02-01T16:48:58.853Z,97233.86
2023-02-01T16:51:33.128Z,97228.16
2023-02-01T16:54:02.578Z,97230.25
2023-02-01T16:56:34.562Z,97229.74
2023-02-01T16:59:03.523Z,97226.85
2023-02-01T17:01:32.112Z,97224.98
2023-02-01T17:04:00.773Z,97222.04
2023-02-01T17:06:30.330Z,97216.16
2023-02-01T17:08:59.997Z,97214.96
2023-02-01T17:11:31.084Z,97216.17
2023-02-01T17:14:16.794Z,97218.78
2023-02-01T17:16:48.366Z,97219.30
2023-02-01T17:19:24.726Z,97220.16
2023-02-01T17:21:59.578Z,97217.04
2023-02-01T17:24:42.739Z,97217.04
2023-02-01T17:27:19.665Z,97215.14
2023-02-01T17:29:49.436Z,97210.50
2023-02-01T17:32:21.286Z,97213.77
2023-02-01T17:34:50.826Z,97214.28
2023-02-01T17:37:34.727Z,97213.94
2023-02-01T17:40:03.904Z,97212.89
2023-02-01T17:42:32.537Z,97214.62
2023-02-01T17:45:23.336Z,97216.52
2023-02-01T17:47:51.956Z,97215.14
2023-02-01T17:50:20.250Z,97215.50
2023-02-01T17:52:48.447Z,97216.39
2023-02-01T17:55:20.555Z,97211.41
2023-02-01T17:57:49.754Z,97210.58
2023-02-01T18:00:19.382Z,97209.05
2023-02-01T18:02:47.582Z,97207.02
2023-02-01T18:05:25.027Z,97205.83
2023-02-01T18:07:53.792Z,97209.83
2023-02-01T18:10:21.986Z,97217.08
2023-02-01T18:12:51.395Z,97222.42
2023-02-01T18:15:23.318Z,97221.22
2023-02-01T18:17:52.444Z,97220.86
2023-02-01T18:20:23.400Z,97222.57
2023-02-01T18:22:52.284Z,97218.59
2023-02-01T18:25:22.436Z,97220.46
2023-02-01T18:27:54.108Z,97224.59
2023-02-01T18:30:25.769Z,97226.77
2023-02-01T18:32:54.129Z,97228.30
2023-02-01T18:35:25.980Z,97229.84
2023-02-01T18:37:56.666Z,97226.67
2023-02-01T18:40:29.330Z,97220.98
2023-02-01T18:42:58.580Z,97217.02
2023-02-01T18:45:36.838Z,97212.36
2023-02-01T18:48:07.376Z,97201.52
2023-02-01T18:50:40.264Z,97200.98
2023-02-01T18:53:14.537Z,97205.08
2023-02-01T18:55:42.801Z,97204.36
2023-02-01T18:58:14.173Z,97200.07
2023-02-01T19:00:44.230Z,97200.42
2023-02-01T19:03:14.978Z,97197.48
2023-02-01T19:05:43.339Z,97200.27
2023-02-01T19:08:11.972Z,97200.62
2023-02-01T19:10:42.738Z,97200.09
2023-02-01T19:13:14.640Z,97194.75
2023-02-01T19:15:44.166Z,97195.61
2023-02-01T19:18:15.540Z,97195.80
2023-02-01T19:20:46.535Z,97197.89
2023-02-01T19:23:15.029Z,97197.89
2023-02-01T19:25:45.438Z,97201.33
2023-02-01T19:28:15.411Z,97202.90
2023-02-01T19:30:45.142Z,97204.99
2023-02-01T19:33:13.904Z,97206.23
2023-02-01T19:35:42.530Z,97210.39
2023-02-01T19:38:13.277Z,97215.42
2023-02-01T19:40:42.054Z,97220.26
2023-02-01T19:43:10.481Z,97216.13
2023-02-01T19:45:38.599Z,97210.63
2023-02-01T19:48:08.006Z,97208.02
2023-02-01T19:50:36.129Z,97207.66
2023-02-01T19:53:04.316Z,97208.15
2023-02-01T19:55:32.953Z,97210.35
2023-02-01T19:58:02.555Z,97210.49
2023-02-01T20:00:31.491Z,97208.39
2023-02-01T20:02:59.790Z,97209.73
2023-02-01T20:05:28.147Z,97215.77
2023-02-01T20:07:56.751Z,97215.56
2023-02-01T20:10:25.182Z,97217.10
2023-02-01T20:12:53.631Z,97215.39
2023-02-01T20:15:24.941Z,97210.91
2023-02-01T20:17:53.946Z,97204.36
2023-02-01T20:20:23.584Z,97202.31
2023-02-01T20:22:53.478Z,97200.95
2023-02-01T20:25:25.937Z,97200.98
2023-02-01T20:27:55.787Z,97201.02
2023-02-01T20:30:24.479Z,97197.23
2023-02-01T20:32:53.141Z,97199.52
2023-02-01T20:35:22.756Z,97197.64
2023-02-01T20:37:51.966Z,97195.06
2023-02-01T20:40:21.022Z,97194.20
2023-02-01T20:42:50.372Z,97188.69
2023-02-01T20:45:18.698Z,97187.65
2023-02-01T20:47:53.645Z,97189.90
2023-02-01T20:50:22.205Z,97184.89
2023-02-01T20:52:50.181Z,97186.08
2023-02-01T20:55:18.334Z,97178.66
2023-02-01T20:57:46.609Z,97175.73
2023-02-01T21:00:15.894Z,97177.77
2023-02-01T21:02:44.304Z,97175.91
2023-02-01T21:05:12.922Z,97171.97
2023-02-01T21:07:41.202Z,97174.39
2023-02-01T21:10:10.319Z,97179.41
2023-02-01T21:12:39.097Z,97183.04
2023-02-01T21:15:08.464Z,97185.83
2023-02-01T21:17:39.450Z,97184.98
2023-02-01T21:20:08.927Z,97183.61
2023-02-01T21:22:36.996Z,97184.98
2023-02-01T21:25:05.529Z,97185.67
2023-02-01T21:27:33.627Z,97189.63
2023-02-01T21:30:02.234Z,97188.77
2023-02-01T21:32:30.467Z,97192.91
2023-02-01T21:34:58.875Z,97192.23
2023-02-01T21:37:27.378Z,97191.20
2023-02-01T21:39:56.840Z,97192.22
2023-02-01T21:42:26.848Z,97189.10
2023-02-01T21:44:55.410Z,97186.67
2023-02-01T21:47:26.556Z,97185.14
2023-02-01T21:49:56.441Z,97185.83
2023-02-01T21:52:25.500Z,97183.25
2023-02-01T21:54:59.863Z,97182.58
2023-02-01T21:57:29.684Z,97179.83
2023-02-01T21:59:59.217Z,97172.77
2023-02-01T22:02:28.531Z,97175.88
2023-02-01T22:04:57.948Z,97176.23
2023-02-01T22:07:26.564Z,97175.90
2023-02-01T22:09:55.253Z,97180.89
2023-02-01T22:12:23.430Z,97182.29
2023-02-01T22:14:51.540Z,97181.93
2023-02-01T22:17:20.081Z,97183.13
2023-02-01T22:19:48.462Z,97186.05
2023-02-01T22:22:16.984Z,97184.34
2023-02-01T22:24:45.036Z,97181.41
2023-02-01T22:27:14.689Z,97182.79
2023-02-01T22:29:43.706Z,97181.56
2023-02-01T22:32:14.207Z,97184.85
2023-02-01T22:34:42.471Z,97185.53
2023-02-01T22:37:12.057Z,97182.60
2023-02-01T22:39:41.409Z,97182.44
2023-02-01T22:42:09.983Z,97181.75
2023-02-01T22:44:38.703Z,97181.42
2023-02-01T22:47:07.708Z,97184.89
2023-02-01T22:49:35.798Z,97183.35
2023-02-01T22:52:03.811Z,97185.27
2023-02-01T22:54:31.848Z,97182.85
2023-02-01T22:57:00.426Z,97179.91
2023-02-01T22:59:28.576Z,97180.44
2023-02-01T23:01:56.946Z,97181.64
2023-02-01T23:04:25.474Z,97177.50
2023-02-01T23:06:53.652Z,97175.26
2023-02-01T23:09:26.540Z,97176.30
2023-02-01T23:11:55.395Z,97176.46
2023-02-01T23:14:24.341Z,97176.48
2023-02-01T23:16:52.351Z,97173.02
2023-02-01T23:19:21.345Z,97171.10
2023-02-01T23:21:49.857Z,97170.42
2023-02-01T23:24:18.131Z,97174.39
2023-02-01T23:26:46.461Z,97173.01
2023-02-01T23:29:18.377Z,97176.27
2023-02-01T23:31:46.683Z,97181.45
2023-02-01T23:34:15.363Z,97178.19
2023-02-01T23:36:43.993Z,97175.94
2023-02-01T23:39:12.481Z,97175.59
2023-02-01T23:41:40.976Z,97175.93
2023-02-01T23:44:10.317Z,97173.67
2023-02-01T23:46:45.333Z,97171.10
2023-02-01T23:49:15.856Z,97171.45
2023-02-01T23:51:45.009Z,97165.23
2023-02-01T23:54:13.685Z,97157.10
2023-02-01T23:56:45.389Z,97156.59
2023-02-01T23:59:22.686Z,97151.23
